createdAt,value
2017-08-31T00:02:26.069Z,25.33
2017-08-31T00:07:28.682Z,19.27
2017-08-31T00:12:31.277Z,17.27
2017-08-31T00:17:34.190Z,16.43
2017-08-31T00:22:36.787Z,17.47
2017-08-31T00:27:39.407Z,14.20
2017-08-31T00:32:42.027Z,18.10
2017-08-31T00:37:44.642Z,16.47
2017-08-31T00:42:47.261Z,22.50
2017-08-31T00:47:49.905Z,17.83
2017-08-31T00:52:52.509Z,29.60
2017-08-31T00:57:55.117Z,20.33
2017-08-31T01:02:58.448Z,23.03
2017-08-31T01:08:01.064Z,20.43
2017-08-31T01:13:03.670Z,18.33
2017-08-31T01:18:06.283Z,20.37
2017-08-31T01:23:09.663Z,21.33
2017-08-31T01:28:12.276Z,22.57
2017-08-31T01:33:14.885Z,15.20
2017-08-31T01:38:17.769Z,15.90
2017-08-31T01:43:20.373Z,22.57
2017-08-31T01:48:22.976Z,22.10
2017-08-31T01:53:25.592Z,23.67
2017-08-31T01:58:28.206Z,24.93
2017-08-31T02:03:30.821Z,18.73
2017-08-31T02:08:33.464Z,17.57
2017-08-31T02:13:36.079Z,19.07
2017-08-31T02:18:38.677Z,20.13
2017-08-31T02:23:41.277Z,16.67
2017-08-31T02:28:43.878Z,11.90
2017-08-31T02:33:46.498Z,15.80
2017-08-31T02:38:49.115Z,17.27
2017-08-31T02:43:51.720Z,11.73
2017-08-31T02:48:54.317Z,11.63
2017-08-31T02:53:56.942Z,11.70
2017-08-31T02:58:59.573Z,15.47
2017-08-31T03:04:02.194Z,18.03
2017-08-31T03:09:04.813Z,13.57
2017-08-31T03:14:07.393Z,12.27
2017-08-31T03:19:10.002Z,20.23
2017-08-31T03:24:12.601Z,9.67
2017-08-31T03:29:15.206Z,17.40
2017-08-31T03:34:17.813Z,15.33
2017-08-31T03:39:20.422Z,10.90
2017-08-31T03:44:23.034Z,16.13
2017-08-31T03:49:25.650Z,16.60
2017-08-31T03:54:28.242Z,16.07
2017-08-31T03:59:30.853Z,20.23
2017-08-31T04:04:33.460Z,16.67
2017-08-31T04:09:36.073Z,13.23
2017-08-31T04:14:38.677Z,21.47
2017-08-31T04:19:41.284Z,18.40
2017-08-31T04:24:43.898Z,11.03
2017-08-31T04:29:46.546Z,13.00
2017-08-31T04:34:49.182Z,11.37
2017-08-31T04:39:51.807Z,16.03
2017-08-31T04:44:54.426Z,14.53
2017-08-31T04:49:57.023Z,15.97
2017-08-31T04:54:59.649Z,17.90
2017-08-31T05:00:02.248Z,15.20
2017-08-31T05:05:04.902Z,17.03
2017-08-31T05:10:07.514Z,14.10
2017-08-31T05:15:10.152Z,19.77
2017-08-31T05:20:12.754Z,17.43
2017-08-31T05:25:16.134Z,16.77
2017-08-31T05:30:18.734Z,17.33
2017-08-31T05:35:21.361Z,22.63
2017-08-31T05:40:24.011Z,20.60
2017-08-31T05:45:26.611Z,21.43
2017-08-31T05:50:29.215Z,25.13
2017-08-31T05:55:32.695Z,18.07
2017-08-31T06:00:35.289Z,21.67
2017-08-31T06:05:37.889Z,23.60
2017-08-31T06:10:41.195Z,23.73
2017-08-31T06:15:43.814Z,21.03
2017-08-31T06:20:47.416Z,24.80
2017-08-31T06:25:50.031Z,19.37
2017-08-31T06:30:52.621Z,25.30
2017-08-31T06:35:55.582Z,24.93
2017-08-31T06:40:58.193Z,24.17
2017-08-31T06:46:00.808Z,29.63
2017-08-31T06:51:03.421Z,18.43
2017-08-31T06:56:06.032Z,21.67
2017-08-31T07:01:09.454Z,26.00
2017-08-31T07:06:12.077Z,19.37
2017-08-31T07:11:14.658Z,26.80
2017-08-31T07:16:17.271Z,22.47
2017-08-31T07:21:19.892Z,15.47
2017-08-31T07:26:22.511Z,17.27
2017-08-31T07:31:25.134Z,19.10
2017-08-31T07:36:27.749Z,19.60
2017-08-31T07:41:30.378Z,19.37
2017-08-31T07:46:32.981Z,16.20
2017-08-31T07:51:35.671Z,27.23
2017-08-31T07:56:38.317Z,22.73
2017-08-31T08:01:40.937Z,19.50
2017-08-31T08:06:43.542Z,22.27
2017-08-31T08:11:46.163Z,18.73
2017-08-31T08:16:48.782Z,22.77
2017-08-31T08:21:52.188Z,20.60
2017-08-31T08:26:54.794Z,19.30
2017-08-31T08:31:57.405Z,14.77
2017-08-31T08:37:00.030Z,16.70
2017-08-31T08:42:02.652Z,17.30
2017-08-31T08:47:05.259Z,10.27
2017-08-31T08:52:07.881Z,11.13
2017-08-31T08:57:10.511Z,9.67
2017-08-31T09:02:13.107Z,8.00
2017-08-31T09:07:15.707Z,17.83
2017-08-31T09:12:18.349Z,10.13
2017-08-31T09:17:20.958Z,13.47
2017-08-31T09:22:23.581Z,8.70
2017-08-31T09:27:26.200Z,14.90
2017-08-31T09:32:28.809Z,11.97
2017-08-31T09:37:31.510Z,7.87
2017-08-31T09:42:34.105Z,10.10
2017-08-31T09:47:36.702Z,10.90
2017-08-31T09:52:39.412Z,14.60
2017-08-31T09:57:42.042Z,6.03
2017-08-31T10:02:44.648Z,6.53
2017-08-31T10:07:47.260Z,6.67
2017-08-31T10:12:49.915Z,8.87
2017-08-31T10:17:52.511Z,12.63
2017-08-31T10:22:55.119Z,10.90
2017-08-31T10:27:57.729Z,14.03
2017-08-31T10:33:00.315Z,7.23
2017-08-31T10:38:02.911Z,7.53
2017-08-31T10:43:05.506Z,11.00
2017-08-31T10:48:08.097Z,7.33
2017-08-31T10:53:10.698Z,3.27
2017-08-31T10:58:14.177Z,6.60
2017-08-31T11:03:16.781Z,3.73
2017-08-31T11:08:19.397Z,3.30
2017-08-31T11:13:21.993Z,6.00
2017-08-31T11:18:24.604Z,5.30
2017-08-31T11:23:27.199Z,7.83
2017-08-31T11:28:30.234Z,2.87
2017-08-31T11:33:33.112Z,5.50
2017-08-31T11:38:38.612Z,5.90
2017-08-31T11:43:41.211Z,13.73
2017-08-31T11:48:43.833Z,12.70
2017-08-31T11:53:48.283Z,4.00
2017-08-31T11:58:50.985Z,8.83
2017-08-31T12:03:53.616Z,10.63
2017-08-31T12:08:56.225Z,6.70
2017-08-31T12:13:58.846Z,5.40
2017-08-31T12:19:01.447Z,4.53
2017-08-31T12:24:04.053Z,6.93
2017-08-31T12:29:06.651Z,5.07
2017-08-31T12:34:09.247Z,6.90
2017-08-31T12:39:11.853Z,5.53
2017-08-31T12:44:14.476Z,3.97
2017-08-31T12:49:17.799Z,3.40
2017-08-31T12:54:20.410Z,2.93
2017-08-31T12:59:23.010Z,4.07
2017-08-31T13:04:25.621Z,3.37
2017-08-31T13:09:28.471Z,5.47
2017-08-31T13:14:31.052Z,4.20
2017-08-31T13:19:33.658Z,7.03
2017-08-31T13:24:36.278Z,6.00
2017-08-31T13:29:38.880Z,2.00
2017-08-31T13:34:41.470Z,2.70
2017-08-31T13:39:44.077Z,2.17
2017-08-31T13:44:46.664Z,3.00
2017-08-31T13:49:49.260Z,2.50
2017-08-31T13:54:51.929Z,2.27
2017-08-31T13:59:54.533Z,2.40
2017-08-31T14:04:57.159Z,5.07
2017-08-31T14:09:59.778Z,2.60
2017-08-31T14:15:02.405Z,6.67
2017-08-31T14:20:05.023Z,2.63
2017-08-31T14:25:07.618Z,2.50
2017-08-31T14:30:10.223Z,2.93
2017-08-31T14:35:13.639Z,2.60
2017-08-31T14:40:16.226Z,2.23
2017-08-31T14:45:18.830Z,2.47
2017-08-31T14:50:21.419Z,5.63
2017-08-31T14:55:23.993Z,4.17
2017-08-31T15:00:26.607Z,4.20
2017-08-31T15:05:29.198Z,2.10
2017-08-31T15:10:31.947Z,1.90
2017-08-31T15:15:34.554Z,1.97
2017-08-31T15:20:37.191Z,2.33
2017-08-31T15:25:39.851Z,2.43
2017-08-31T15:30:42.462Z,3.90
2017-08-31T15:35:45.075Z,2.47
2017-08-31T15:40:47.738Z,2.13
2017-08-31T15:45:50.325Z,2.57
2017-08-31T15:56:05.806Z,2.70
2017-08-31T16:01:08.402Z,2.10
2017-08-31T16:06:11.051Z,1.80
2017-08-31T16:11:13.655Z,2.70
2017-08-31T16:16:16.261Z,1.90
2017-08-31T16:21:18.833Z,1.97
2017-08-31T16:26:21.434Z,2.00
2017-08-31T16:31:24.056Z,2.30
2017-08-31T16:36:26.647Z,2.10
2017-08-31T16:41:29.243Z,4.50
2017-08-31T16:46:31.843Z,2.23
2017-08-31T16:51:34.439Z,3.13
2017-08-31T16:56:37.082Z,5.60
2017-08-31T17:01:39.673Z,4.37
2017-08-31T17:06:42.290Z,2.80
2017-08-31T17:11:44.901Z,4.60
2017-08-31T17:16:47.484Z,5.37
2017-08-31T17:21:50.110Z,3.17
2017-08-31T17:26:52.702Z,3.07
2017-08-31T17:31:55.320Z,5.20
2017-08-31T17:36:57.926Z,8.10
2017-08-31T17:42:00.524Z,6.00
2017-08-31T17:47:03.125Z,3.43
2017-08-31T17:52:05.754Z,5.63
2017-08-31T17:57:08.398Z,3.80
2017-08-31T18:02:11.079Z,3.77
2017-08-31T18:07:13.734Z,3.40
2017-08-31T18:12:16.358Z,4.30
2017-08-31T18:17:18.983Z,8.07
2017-08-31T18:22:21.588Z,10.17
2017-08-31T18:27:24.165Z,6.87
2017-08-31T18:32:26.750Z,4.37
2017-08-31T18:37:29.370Z,5.33
2017-08-31T18:42:31.988Z,3.70
2017-08-31T18:47:34.595Z,9.60
2017-08-31T18:52:37.228Z,6.20
2017-08-31T18:57:39.843Z,4.20
2017-08-31T19:02:42.481Z,4.50
2017-08-31T19:07:45.115Z,3.53
2017-08-31T19:12:47.734Z,4.90
2017-08-31T19:17:50.339Z,9.93
2017-08-31T19:22:53.697Z,4.87
2017-08-31T19:27:56.329Z,4.47
2017-08-31T19:32:58.985Z,4.80
2017-08-31T19:38:01.610Z,4.70
2017-08-31T19:43:04.264Z,4.70
2017-08-31T19:48:06.870Z,4.40
2017-08-31T19:53:09.490Z,5.10
2017-08-31T19:58:12.110Z,5.53
2017-08-31T20:03:14.843Z,5.80
2017-08-31T20:08:17.840Z,7.90
2017-08-31T20:13:20.457Z,8.10
2017-08-31T20:18:23.116Z,7.93
2017-08-31T20:23:25.718Z,10.07
2017-08-31T20:28:28.354Z,20.57
2017-08-31T20:33:30.976Z,12.63
2017-08-31T20:38:34.410Z,10.93
2017-08-31T20:43:37.008Z,11.20
2017-08-31T20:48:39.619Z,13.03
2017-08-31T20:53:42.230Z,10.67
2017-08-31T20:58:44.838Z,10.53
2017-08-31T21:03:47.474Z,11.87
2017-08-31T21:08:50.081Z,12.13
2017-08-31T21:13:52.673Z,9.40
2017-08-31T21:18:55.313Z,11.60
2017-08-31T21:23:57.946Z,9.10
2017-08-31T21:29:00.562Z,9.07
2017-08-31T21:34:03.203Z,8.33
2017-08-31T21:39:05.910Z,10.63
2017-08-31T21:44:08.529Z,12.87
2017-08-31T21:49:11.152Z,14.67
2017-08-31T21:54:14.133Z,10.57
2017-08-31T21:59:16.729Z,10.97
2017-08-31T22:04:31.218Z,10.50
2017-08-31T22:09:33.778Z,15.37
2017-08-31T22:14:36.349Z,11.87
2017-08-31T22:19:38.922Z,10.70
2017-08-31T22:24:41.484Z,10.67
2017-08-31T22:29:44.035Z,10.50
2017-08-31T22:34:46.608Z,10.97
2017-08-31T22:39:49.181Z,10.30
2017-08-31T22:44:52.547Z,9.70
2017-08-31T22:49:55.105Z,9.03
2017-08-31T23:00:26.837Z,8.65
2017-08-31T23:05:29.390Z,8.37
2017-08-31T23:10:31.949Z,7.60
2017-08-31T23:15:34.529Z,11.80
2017-08-31T23:20:37.093Z,11.50
2017-08-31T23:25:39.650Z,8.43
2017-08-31T23:30:42.187Z,8.43
2017-08-31T23:35:44.762Z,7.97
2017-08-31T23:40:47.331Z,10.17
2017-08-31T23:45:49.874Z,8.73
2017-08-31T23:50:52.421Z,7.33
2017-08-31T23:55:54.980Z,9.90
